sensor_id;sensor_type;location;lat;lon;timestamp;temperature;humidity
38241;DHT22;24037;49.536;8.500;2023-03-13T00:01:12;8.70;99.90
38241;DHT22;24037;49.536;8.500;2023-03-13T00:03:38;8.80;99.90
38241;DHT22;24037;49.536;8.500;2023-03-13T00:06:05;8.80;99.90
38241;DHT22;24037;49.536;8.500;2023-03-13T00:08:31;8.70;99.90
38241;DHT22;24037;49.536;8.500;2023-03-13T00:10:57;8.70;99.90
38241;DHT22;24037;49.536;8.500;2023-03-13T00:13:27;8.70;99.90
38241;DHT22;24037;49.536;8.500;2023-03-13T00:16:04;8.60;99.90
38241;DHT22;24037;49.536;8.500;2023-03-13T00:18:30;8.70;99.90
38241;DHT22;24037;49.536;8.500;2023-03-13T00:21:00;8.80;99.90
38241;DHT22;24037;49.536;8.500;2023-03-13T00:23:27;8.80;99.90
38241;DHT22;24037;49.536;8.500;2023-03-13T00:25:58;8.90;99.90
38241;DHT22;24037;49.536;8.500;2023-03-13T00:28:26;9.00;99.90
38241;DHT22;24037;49.536;8.500;2023-03-13T00:31:09;9.10;99.90
38241;DHT22;24037;49.536;8.500;2023-03-13T00:33:41;9.00;99.90
38241;DHT22;24037;49.536;8.500;2023-03-13T00:36:12;9.10;99.90
38241;DHT22;24037;49.536;8.500;2023-03-13T00:38:40;9.10;99.90
38241;DHT22;24037;49.536;8.500;2023-03-13T00:41:09;9.10;99.90
38241;DHT22;24037;49.536;8.500;2023-03-13T00:43:38;9.10;99.90
38241;DHT22;24037;49.536;8.500;2023-03-13T00:46:04;9.20;99.90
38241;DHT22;24037;49.536;8.500;2023-03-13T00:48:31;9.20;99.90
38241;DHT22;24037;49.536;8.500;2023-03-13T00:51:00;9.30;99.90
38241;DHT22;24037;49.536;8.500;2023-03-13T00:53:27;9.30;99.90
38241;DHT22;24037;49.536;8.500;2023-03-13T00:56:02;9.40;99.90
38241;DHT22;24037;49.536;8.500;2023-03-13T00:58:31;9.40;99.90
38241;DHT22;24037;49.536;8.500;2023-03-13T01:01:24;9.40;99.90
38241;DHT22;24037;49.536;8.500;2023-03-13T01:03:56;9.50;99.90
38241;DHT22;24037;49.536;8.500;2023-03-13T01:06:25;9.50;99.90
38241;DHT22;24037;49.536;8.500;2023-03-13T01:08:52;9.50;99.90
38241;DHT22;24037;49.536;8.500;2023-03-13T01:11:21;9.50;99.90
38241;DHT22;24037;49.536;8.500;2023-03-13T01:13:48;9.60;99.90
38241;DHT22;24037;49.536;8.500;2023-03-13T01:16:19;9.50;99.90
38241;DHT22;24037;49.536;8.500;2023-03-13T01:18:48;9.60;99.90
38241;DHT22;24037;49.536;8.500;2023-03-13T01:21:16;9.70;99.90
38241;DHT22;24037;49.536;8.500;2023-03-13T01:23:48;9.70;99.90
38241;DHT22;24037;49.536;8.500;2023-03-13T01:26:14;9.70;99.90
38241;DHT22;24037;49.536;8.500;2023-03-13T01:28:40;9.70;99.90
38241;DHT22;24037;49.536;8.500;2023-03-13T01:31:22;9.70;99.90
38241;DHT22;24037;49.536;8.500;2023-03-13T01:33:51;9.70;99.90
38241;DHT22;24037;49.536;8.500;2023-03-13T01:36:18;9.70;99.90
38241;DHT22;24037;49.536;8.500;2023-03-13T01:38:50;9.70;99.90
38241;DHT22;24037;49.536;8.500;2023-03-13T01:41:16;9.70;99.90
38241;DHT22;24037;49.536;8.500;2023-03-13T01:43:44;9.60;99.90
38241;DHT22;24037;49.536;8.500;2023-03-13T01:49:04;9.70;99.90
38241;DHT22;24037;49.536;8.500;2023-03-13T01:51:43;9.70;99.90
38241;DHT22;24037;49.536;8.500;2023-03-13T01:54:16;9.70;99.90
38241;DHT22;24037;49.536;8.500;2023-03-13T01:56:57;9.70;99.90
38241;DHT22;24037;49.536;8.500;2023-03-13T01:59:31;9.80;99.90
38241;DHT22;24037;49.536;8.500;2023-03-13T02:02:01;10.00;99.90
38241;DHT22;24037;49.536;8.500;2023-03-13T02:04:31;10.30;99.90
38241;DHT22;24037;49.536;8.500;2023-03-13T02:07:03;10.30;99.90
38241;DHT22;24037;49.536;8.500;2023-03-13T02:09:32;10.40;99.90
38241;DHT22;24037;49.536;8.500;2023-03-13T02:12:06;10.50;99.90
38241;DHT22;24037;49.536;8.500;2023-03-13T02:14:35;10.60;99.90
38241;DHT22;24037;49.536;8.500;2023-03-13T02:17:04;10.60;99.90
38241;DHT22;24037;49.536;8.500;2023-03-13T02:19:43;10.50;99.90
38241;DHT22;24037;49.536;8.500;2023-03-13T02:27:57;10.50;99.90
38241;DHT22;24037;49.536;8.500;2023-03-13T02:30:26;10.50;99.90
38241;DHT22;24037;49.536;8.500;2023-03-13T02:32:55;10.50;99.90
38241;DHT22;24037;49.536;8.500;2023-03-13T02:35:22;10.50;99.90
38241;DHT22;24037;49.536;8.500;2023-03-13T02:37:54;10.40;99.90
38241;DHT22;24037;49.536;8.500;2023-03-13T02:40:29;10.40;99.90
38241;DHT22;24037;49.536;8.500;2023-03-13T02:42:59;10.40;99.90
38241;DHT22;24037;49.536;8.500;2023-03-13T02:45:26;10.40;99.90
38241;DHT22;24037;49.536;8.500;2023-03-13T02:47:52;10.40;99.90
38241;DHT22;24037;49.536;8.500;2023-03-13T02:50:19;10.40;99.90
38241;DHT22;24037;49.536;8.500;2023-03-13T02:52:48;10.50;99.90
38241;DHT22;24037;49.536;8.500;2023-03-13T02:55:23;10.50;99.90
38241;DHT22;24037;49.536;8.500;2023-03-13T02:57:52;10.50;99.90
38241;DHT22;24037;49.536;8.500;2023-03-13T03:00:18;10.50;99.90
38241;DHT22;24037;49.536;8.500;2023-03-13T03:02:45;10.50;99.90
38241;DHT22;24037;49.536;8.500;2023-03-13T03:05:13;10.60;99.90
38241;DHT22;24037;49.536;8.500;2023-03-13T03:07:39;10.50;99.90
38241;DHT22;24037;49.536;8.500;2023-03-13T03:10:07;10.50;99.90
38241;DHT22;24037;49.536;8.500;2023-03-13T03:12:34;10.50;99.90
38241;DHT22;24037;49.536;8.500;2023-03-13T03:15:01;10.50;99.90
38241;DHT22;24037;49.536;8.500;2023-03-13T03:17:30;10.50;99.90
38241;DHT22;24037;49.536;8.500;2023-03-13T03:19:56;10.50;99.90
38241;DHT22;24037;49.536;8.500;2023-03-13T03:22:23;10.50;99.90
38241;DHT22;24037;49.536;8.500;2023-03-13T03:24:49;10.50;99.90
38241;DHT22;24037;49.536;8.500;2023-03-13T03:27:15;10.50;99.90
38241;DHT22;24037;49.536;8.500;2023-03-13T03:29:50;10.50;99.90
38241;DHT22;24037;49.536;8.500;2023-03-13T03:32:16;10.60;99.90
38241;DHT22;24037;49.536;8.500;2023-03-13T03:34:42;10.50;99.90
38241;DHT22;24037;49.536;8.500;2023-03-13T03:37:08;10.50;99.90
38241;DHT22;24037;49.536;8.500;2023-03-13T03:39:34;10.50;99.90
38241;DHT22;24037;49.536;8.500;2023-03-13T03:42:05;10.50;99.90
38241;DHT22;24037;49.536;8.500;2023-03-13T03:44:32;10.50;99.90
38241;DHT22;24037;49.536;8.500;2023-03-13T03:46:59;10.50;1.00
38241;DHT22;24037;49.536;8.500;2023-03-13T03:49:29;10.50;1.00
38241;DHT22;24037;49.536;8.500;2023-03-13T03:51:55;10.40;1.00
38241;DHT22;24037;49.536;8.500;2023-03-13T03:54:27;10.30;1.00
38241;DHT22;24037;49.536;8.500;2023-03-13T03:56:54;10.30;1.00
38241;DHT22;24037;49.536;8.500;2023-03-13T03:59:20;10.30;1.00
38241;DHT22;24037;49.536;8.500;2023-03-13T04:01:55;10.20;1.00
38241;DHT22;24037;49.536;8.500;2023-03-13T04:04:24;10.30;1.00
38241;DHT22;24037;49.536;8.500;2023-03-13T04:06:57;10.30;1.00
38241;DHT22;24037;49.536;8.500;2023-03-13T04:09:24;10.30;1.00
38241;DHT22;24037;49.536;8.500;2023-03-13T04:11:51;10.20;1.00
38241;DHT22;24037;49.536;8.500;2023-03-13T04:14:17;10.30;1.00
38241;DHT22;24037;49.536;8.500;2023-03-13T04:16:44;10.30;1.00
38241;DHT22;24037;49.536;8.500;2023-03-13T04:19:11;10.30;1.00
38241;DHT22;24037;49.536;8.500;2023-03-13T04:21:37;10.30;1.00
38241;DHT22;24037;49.536;8.500;2023-03-13T04:24:11;10.20;1.00
38241;DHT22;24037;49.536;8.500;2023-03-13T04:26:40;10.20;1.00
38241;DHT22;24037;49.536;8.500;2023-03-13T04:29:06;10.20;1.00
38241;DHT22;24037;49.536;8.500;2023-03-13T04:31:46;10.20;1.00
38241;DHT22;24037;49.536;8.500;2023-03-13T04:34:34;10.20;1.00
38241;DHT22;24037;49.536;8.500;2023-03-13T04:37:27;10.20;1.00
38241;DHT22;24037;49.536;8.500;2023-03-13T04:40:16;10.20;1.00
38241;DHT22;24037;49.536;8.500;2023-03-13T04:43:05;10.20;1.00
38241;DHT22;24037;49.536;8.500;2023-03-13T04:46:06;10.20;1.00
38241;DHT22;24037;49.536;8.500;2023-03-13T04:48:44;10.20;1.00
38241;DHT22;24037;49.536;8.500;2023-03-13T04:51:24;10.20;1.00
38241;DHT22;24037;49.536;8.500;2023-03-13T04:54:13;10.20;1.00
38241;DHT22;24037;49.536;8.500;2023-03-13T04:57:00;10.20;1.00
38241;DHT22;24037;49.536;8.500;2023-03-13T04:59:39;10.20;1.00
38241;DHT22;24037;49.536;8.500;2023-03-13T05:02:43;10.20;1.00
38241;DHT22;24037;49.536;8.500;2023-03-13T05:05:30;10.20;1.00
38241;DHT22;24037;49.536;8.500;2023-03-13T05:08:24;10.30;1.00
38241;DHT22;24037;49.536;8.500;2023-03-13T05:11:06;10.20;1.00
38241;DHT22;24037;49.536;8.500;2023-03-13T05:13:50;10.30;1.00
38241;DHT22;24037;49.536;8.500;2023-03-13T05:16:37;10.30;1.00
38241;DHT22;24037;49.536;8.500;2023-03-13T05:19:26;10.40;1.00
38241;DHT22;24037;49.536;8.500;2023-03-13T05:22:21;10.40;1.00
38241;DHT22;24037;49.536;8.500;2023-03-13T05:25:06;10.40;1.00
38241;DHT22;24037;49.536;8.500;2023-03-13T05:27:54;10.40;1.00
38241;DHT22;24037;49.536;8.500;2023-03-13T05:30:32;10.50;1.00
38241;DHT22;24037;49.536;8.500;2023-03-13T05:33:17;10.50;1.00
38241;DHT22;24037;49.536;8.500;2023-03-13T05:36:01;10.50;1.00
38241;DHT22;24037;49.536;8.500;2023-03-13T05:38:41;10.50;1.00
38241;DHT22;24037;49.536;8.500;2023-03-13T05:41:38;10.50;1.00
38241;DHT22;24037;49.536;8.500;2023-03-13T05:44:17;10.60;1.00
38241;DHT22;24037;49.536;8.500;2023-03-13T05:47:19;10.60;1.00
38241;DHT22;24037;49.536;8.500;2023-03-13T05:49:45;10.60;1.00
38241;DHT22;24037;49.536;8.500;2023-03-13T05:52:34;10.70;1.00
38241;DHT22;24037;49.536;8.500;2023-03-13T05:55:11;10.70;1.00
38241;DHT22;24037;49.536;8.500;2023-03-13T05:57:59;10.70;1.00
38241;DHT22;24037;49.536;8.500;2023-03-13T06:00:44;10.80;1.00
38241;DHT22;24037;49.536;8.500;2023-03-13T06:03:29;10.70;1.00
38241;DHT22;24037;49.536;8.500;2023-03-13T06:05:57;10.80;1.00
38241;DHT22;24037;49.536;8.500;2023-03-13T06:08:35;10.80;1.00
38241;DHT22;24037;49.536;8.500;2023-03-13T06:11:02;10.80;1.00
38241;DHT22;24037;49.536;8.500;2023-03-13T06:13:28;10.90;1.00
38241;DHT22;24037;49.536;8.500;2023-03-13T06:15:59;10.90;1.00
38241;DHT22;24037;49.536;8.500;2023-03-13T06:18:44;10.90;1.00
38241;DHT22;24037;49.536;8.500;2023-03-13T06:21:10;10.90;1.00
38241;DHT22;24037;49.536;8.500;2023-03-13T06:23:36;10.90;1.00
38241;DHT22;24037;49.536;8.500;2023-03-13T06:26:02;10.90;1.00
38241;DHT22;24037;49.536;8.500;2023-03-13T06:28:29;11.00;1.00
38241;DHT22;24037;49.536;8.500;2023-03-13T06:31:03;11.10;1.00
38241;DHT22;24037;49.536;8.500;2023-03-13T06:33:30;11.10;1.00
38241;DHT22;24037;49.536;8.500;2023-03-13T06:35:56;11.10;1.00
38241;DHT22;24037;49.536;8.500;2023-03-13T06:38:24;11.10;1.00
38241;DHT22;24037;49.536;8.500;2023-03-13T06:40:50;11.10;1.00
38241;DHT22;24037;49.536;8.500;2023-03-13T06:43:16;11.20;1.00
38241;DHT22;24037;49.536;8.500;2023-03-13T06:45:45;11.20;1.00
38241;DHT22;24037;49.536;8.500;2023-03-13T06:48:11;11.40;1.00
38241;DHT22;24037;49.536;8.500;2023-03-13T06:50:38;11.60;1.00
38241;DHT22;24037;49.536;8.500;2023-03-13T06:53:05;11.70;1.00
38241;DHT22;24037;49.536;8.500;2023-03-13T06:55:31;11.90;1.00
38241;DHT22;24037;49.536;8.500;2023-03-13T06:57:57;12.00;1.00
38241;DHT22;24037;49.536;8.500;2023-03-13T07:00:24;12.10;1.00
38241;DHT22;24037;49.536;8.500;2023-03-13T07:02:50;12.20;1.00
38241;DHT22;24037;49.536;8.500;2023-03-13T07:05:16;12.40;1.00
38241;DHT22;24037;49.536;8.500;2023-03-13T07:07:43;12.40;1.00
38241;DHT22;24037;49.536;8.500;2023-03-13T07:10:10;12.40;1.00
38241;DHT22;24037;49.536;8.500;2023-03-13T07:12:36;12.40;1.00
38241;DHT22;24037;49.536;8.500;2023-03-13T07:15:03;12.50;1.00
38241;DHT22;24037;49.536;8.500;2023-03-13T07:17:30;12.50;1.00
38241;DHT22;24037;49.536;8.500;2023-03-13T07:19:56;12.60;1.00
38241;DHT22;24037;49.536;8.500;2023-03-13T07:22:22;12.60;1.00
38241;DHT22;24037;49.536;8.500;2023-03-13T07:24:48;12.60;1.00
38241;DHT22;24037;49.536;8.500;2023-03-13T07:27:16;12.70;1.00
38241;DHT22;24037;49.536;8.500;2023-03-13T07:29:42;12.80;1.00
38241;DHT22;24037;49.536;8.500;2023-03-13T07:32:08;12.70;1.00
38241;DHT22;24037;49.536;8.500;2023-03-13T07:34:34;12.80;1.00
38241;DHT22;24037;49.536;8.500;2023-03-13T07:37:00;12.70;1.00
38241;DHT22;24037;49.536;8.500;2023-03-13T07:39:26;12.70;1.00
38241;DHT22;24037;49.536;8.500;2023-03-13T07:41:53;12.80;1.00
38241;DHT22;24037;49.536;8.500;2023-03-13T07:44:19;12.80;1.00
38241;DHT22;24037;49.536;8.500;2023-03-13T07:46:45;12.80;1.00
38241;DHT22;24037;49.536;8.500;2023-03-13T07:49:13;12.90;1.00
38241;DHT22;24037;49.536;8.500;2023-03-13T07:51:39;13.00;1.00
38241;DHT22;24037;49.536;8.500;2023-03-13T07:54:07;13.00;1.00
38241;DHT22;24037;49.536;8.500;2023-03-13T07:56:34;13.00;1.00
38241;DHT22;24037;49.536;8.500;2023-03-13T07:59:00;13.00;1.00
38241;DHT22;24037;49.536;8.500;2023-03-13T08:01:26;13.00;1.00
38241;DHT22;24037;49.536;8.500;2023-03-13T08:03:55;13.00;1.00
38241;DHT22;24037;49.536;8.500;2023-03-13T08:06:25;13.10;1.00
38241;DHT22;24037;49.536;8.500;2023-03-13T08:08:55;13.00;1.00
38241;DHT22;24037;49.536;8.500;2023-03-13T08:11:23;13.10;1.00
38241;DHT22;24037;49.536;8.500;2023-03-13T08:13:50;13.10;1.00
38241;DHT22;24037;49.536;8.500;2023-03-13T08:16:22;13.10;1.00
38241;DHT22;24037;49.536;8.500;2023-03-13T08:18:51;13.10;1.00
38241;DHT22;24037;49.536;8.500;2023-03-13T08:21:20;13.20;1.00
38241;DHT22;24037;49.536;8.500;2023-03-13T08:23:46;13.30;1.00
38241;DHT22;24037;49.536;8.500;2023-03-13T08:26:15;13.30;1.00
38241;DHT22;24037;49.536;8.500;2023-03-13T08:28:47;13.40;1.00
38241;DHT22;24037;49.536;8.500;2023-03-13T08:31:19;13.50;1.00
38241;DHT22;24037;49.536;8.500;2023-03-13T08:33:46;13.50;1.00
38241;DHT22;24037;49.536;8.500;2023-03-13T08:38:49;13.50;1.00
38241;DHT22;24037;49.536;8.500;2023-03-13T08:41:18;13.50;1.00
38241;DHT22;24037;49.536;8.500;2023-03-13T08:43:46;13.60;1.00
38241;DHT22;24037;49.536;8.500;2023-03-13T08:46:14;13.60;99.90
38241;DHT22;24037;49.536;8.500;2023-03-13T08:48:40;13.60;99.90
38241;DHT22;24037;49.536;8.500;2023-03-13T08:51:12;13.70;99.90
38241;DHT22;24037;49.536;8.500;2023-03-13T08:53:40;13.80;99.90
38241;DHT22;24037;49.536;8.500;2023-03-13T08:56:12;13.80;99.90
38241;DHT22;24037;49.536;8.500;2023-03-13T08:58:39;13.80;99.90
38241;DHT22;24037;49.536;8.500;2023-03-13T09:01:11;13.80;99.90
38241;DHT22;24037;49.536;8.500;2023-03-13T09:03:38;13.80;99.90
38241;DHT22;24037;49.536;8.500;2023-03-13T09:06:05;13.80;99.90
38241;DHT22;24037;49.536;8.500;2023-03-13T09:08:32;13.80;99.90
38241;DHT22;24037;49.536;8.500;2023-03-13T09:11:00;13.90;99.90
38241;DHT22;24037;49.536;8.500;2023-03-13T09:13:28;14.00;99.90
38241;DHT22;24037;49.536;8.500;2023-03-13T09:16:02;14.10;99.90
38241;DHT22;24037;49.536;8.500;2023-03-13T09:18:29;14.10;99.90
38241;DHT22;24037;49.536;8.500;2023-03-13T09:20:55;14.30;99.90
38241;DHT22;24037;49.536;8.500;2023-03-13T09:23:22;14.30;99.90
38241;DHT22;24037;49.536;8.500;2023-03-13T09:25:51;14.10;99.90
38241;DHT22;24037;49.536;8.500;2023-03-13T09:28:18;14.10;99.90
38241;DHT22;24037;49.536;8.500;2023-03-13T09:30:44;14.10;99.90
38241;DHT22;24037;49.536;8.500;2023-03-13T09:33:11;14.10;99.90
38241;DHT22;24037;49.536;8.500;2023-03-13T09:35:38;14.00;99.90
38241;DHT22;24037;49.536;8.500;2023-03-13T09:38:05;13.90;99.90
38241;DHT22;24037;49.536;8.500;2023-03-13T09:40:46;13.90;99.90
38241;DHT22;24037;49.536;8.500;2023-03-13T09:46:23;13.90;99.90
38241;DHT22;24037;49.536;8.500;2023-03-13T09:48:58;14.00;99.90
38241;DHT22;24037;49.536;8.500;2023-03-13T09:51:36;14.10;99.90
38241;DHT22;24037;49.536;8.500;2023-03-13T09:54:26;14.20;99.90
38241;DHT22;24037;49.536;8.500;2023-03-13T09:57:02;14.10;99.90
38241;DHT22;24037;49.536;8.500;2023-03-13T10:04:50;14.20;99.90
38241;DHT22;24037;49.536;8.500;2023-03-13T10:07:18;14.30;99.90
38241;DHT22;24037;49.536;8.500;2023-03-13T10:09:46;14.70;99.90
38241;DHT22;24037;49.536;8.500;2023-03-13T10:12:20;15.20;99.90
38241;DHT22;24037;49.536;8.500;2023-03-13T10:17:38;16.20;99.90
38241;DHT22;24037;49.536;8.500;2023-03-13T10:20:28;16.60;99.90
38241;DHT22;24037;49.536;8.500;2023-03-13T10:23:47;16.90;99.90
38241;DHT22;24037;49.536;8.500;2023-03-13T10:26:29;16.50;99.90
38241;DHT22;24037;49.536;8.500;2023-03-13T10:29:01;16.10;99.90
38241;DHT22;24037;49.536;8.500;2023-03-13T10:31:36;15.90;99.90
38241;DHT22;24037;49.536;8.500;2023-03-13T10:34:10;15.70;99.90
38241;DHT22;24037;49.536;8.500;2023-03-13T10:36:48;15.90;99.90
38241;DHT22;24037;49.536;8.500;2023-03-13T10:39:17;16.10;99.90
38241;DHT22;24037;49.536;8.500;2023-03-13T10:41:44;16.30;99.90
38241;DHT22;24037;49.536;8.500;2023-03-13T10:44:16;16.40;99.90
38241;DHT22;24037;49.536;8.500;2023-03-13T10:46:45;16.60;99.90
38241;DHT22;24037;49.536;8.500;2023-03-13T10:49:23;16.60;99.90
38241;DHT22;24037;49.536;8.500;2023-03-13T10:51:54;16.60;99.90
38241;DHT22;24037;49.536;8.500;2023-03-13T10:56:52;16.60;99.90
38241;DHT22;24037;49.536;8.500;2023-03-13T10:59:32;16.70;99.90
38241;DHT22;24037;49.536;8.500;2023-03-13T11:04:45;16.80;99.90
38241;DHT22;24037;49.536;8.500;2023-03-13T11:07:20;16.80;99.90
38241;DHT22;24037;49.536;8.500;2023-03-13T11:10:18;16.90;99.90
38241;DHT22;24037;49.536;8.500;2023-03-13T11:12:47;17.00;99.90
38241;DHT22;24037;49.536;8.500;2023-03-13T11:15:19;16.80;99.90
38241;DHT22;24037;49.536;8.500;2023-03-13T11:18:10;16.80;99.90
38241;DHT22;24037;49.536;8.500;2023-03-13T11:20:40;17.40;99.90
38241;DHT22;24037;49.536;8.500;2023-03-13T11:23:27;17.80;99.90
38241;DHT22;24037;49.536;8.500;2023-03-13T11:26:17;18.00;99.90
38241;DHT22;24037;49.536;8.500;2023-03-13T11:29:08;17.90;99.90
38241;DHT22;24037;49.536;8.500;2023-03-13T11:31:43;18.00;99.90
38241;DHT22;24037;49.536;8.500;2023-03-13T11:34:27;18.10;99.90
38241;DHT22;24037;49.536;8.500;2023-03-13T11:39:34;17.80;99.90
38241;DHT22;24037;49.536;8.500;2023-03-13T11:45:27;17.40;99.90
38241;DHT22;24037;49.536;8.500;2023-03-13T11:56:05;18.10;99.90
38241;DHT22;24037;49.536;8.500;2023-03-13T12:01:33;18.40;99.90
38241;DHT22;24037;49.536;8.500;2023-03-13T12:04:21;18.60;99.90
38241;DHT22;24037;49.536;8.500;2023-03-13T12:09:53;19.20;99.90
38241;DHT22;24037;49.536;8.500;2023-03-13T12:15:25;18.60;99.90
38241;DHT22;24037;49.536;8.500;2023-03-13T12:20:50;18.60;99.90
38241;DHT22;24037;49.536;8.500;2023-03-13T12:23:22;18.80;99.90
38241;DHT22;24037;49.536;8.500;2023-03-13T12:26:06;19.00;99.90
38241;DHT22;24037;49.536;8.500;2023-03-13T12:29:05;19.20;99.90
38241;DHT22;24037;49.536;8.500;2023-03-13T12:31:41;18.80;99.90
38241;DHT22;24037;49.536;8.500;2023-03-13T12:34:19;18.90;99.90
38241;DHT22;24037;49.536;8.500;2023-03-13T12:36:57;18.90;99.90
38241;DHT22;24037;49.536;8.500;2023-03-13T12:39:50;19.10;99.90
38241;DHT22;24037;49.536;8.500;2023-03-13T12:42:48;19.10;99.90
38241;DHT22;24037;49.536;8.500;2023-03-13T12:45:18;19.10;99.90
38241;DHT22;24037;49.536;8.500;2023-03-13T12:56:17;18.80;99.90
38241;DHT22;24037;49.536;8.500;2023-03-13T12:59:01;18.70;99.90
38241;DHT22;24037;49.536;8.500;2023-03-13T13:04:00;19.20;99.90
38241;DHT22;24037;49.536;8.500;2023-03-13T13:06:53;19.20;99.90
38241;DHT22;24037;49.536;8.500;2023-03-13T13:09:36;19.40;99.90
38241;DHT22;24037;49.536;8.500;2023-03-13T13:12:23;19.40;99.90
38241;DHT22;24037;49.536;8.500;2023-03-13T13:17:34;19.30;99.90
38241;DHT22;24037;49.536;8.500;2023-03-13T13:20:25;19.50;99.90
38241;DHT22;24037;49.536;8.500;2023-03-13T13:22:52;19.70;99.90
38241;DHT22;24037;49.536;8.500;2023-03-13T13:27:53;19.70;99.90
38241;DHT22;24037;49.536;8.500;2023-03-13T13:30:38;19.70;99.90
38241;DHT22;24037;49.536;8.500;2023-03-13T13:38:35;20.10;99.90
38241;DHT22;24037;49.536;8.500;2023-03-13T13:43:35;20.00;99.90
38241;DHT22;24037;49.536;8.500;2023-03-13T13:53:50;19.90;99.90
38241;DHT22;24037;49.536;8.500;2023-03-13T13:56:29;19.90;99.90
38241;DHT22;24037;49.536;8.500;2023-03-13T14:01:25;19.70;99.90
38241;DHT22;24037;49.536;8.500;2023-03-13T14:03:57;19.80;99.90
38241;DHT22;24037;49.536;8.500;2023-03-13T14:06:28;19.80;99.90
38241;DHT22;24037;49.536;8.500;2023-03-13T14:11:58;19.90;99.90
38241;DHT22;24037;49.536;8.500;2023-03-13T14:14:24;19.80;99.90
38241;DHT22;24037;49.536;8.500;2023-03-13T14:16:53;19.90;99.90
38241;DHT22;24037;49.536;8.500;2023-03-13T14:19:38;20.00;99.90
38241;DHT22;24037;49.536;8.500;2023-03-13T14:22:08;20.00;99.90
38241;DHT22;24037;49.536;8.500;2023-03-13T14:24:35;20.00;99.90
38241;DHT22;24037;49.536;8.500;2023-03-13T14:27:14;20.00;99.90
38241;DHT22;24037;49.536;8.500;2023-03-13T14:29:41;20.10;99.90
38241;DHT22;24037;49.536;8.500;2023-03-13T14:32:08;20.10;99.90
38241;DHT22;24037;49.536;8.500;2023-03-13T14:34:34;20.10;99.90
38241;DHT22;24037;49.536;8.500;2023-03-13T14:37:01;20.00;99.90
38241;DHT22;24037;49.536;8.500;2023-03-13T14:42:09;19.90;99.90
38241;DHT22;24037;49.536;8.500;2023-03-13T14:44:36;20.10;99.90
38241;DHT22;24037;49.536;8.500;2023-03-13T14:50:12;20.30;99.90
38241;DHT22;24037;49.536;8.500;2023-03-13T14:52:49;20.50;99.90
38241;DHT22;24037;49.536;8.500;2023-03-13T14:58:05;20.70;99.90
38241;DHT22;24037;49.536;8.500;2023-03-13T15:00:48;20.60;99.90
38241;DHT22;24037;49.536;8.500;2023-03-13T15:05:49;20.80;99.90
38241;DHT22;24037;49.536;8.500;2023-03-13T15:08:21;20.90;99.90
38241;DHT22;24037;49.536;8.500;2023-03-13T15:10:51;21.00;99.90
38241;DHT22;24037;49.536;8.500;2023-03-13T15:15:57;21.20;99.90
38241;DHT22;24037;49.536;8.500;2023-03-13T15:18:26;21.40;99.90
38241;DHT22;24037;49.536;8.500;2023-03-13T15:20:55;21.20;99.90
38241;DHT22;24037;49.536;8.500;2023-03-13T15:23:22;21.00;99.90
38241;DHT22;24037;49.536;8.500;2023-03-13T15:25:48;20.80;99.90
38241;DHT22;24037;49.536;8.500;2023-03-13T15:28:20;20.80;99.90
38241;DHT22;24037;49.536;8.500;2023-03-13T15:30:49;20.70;99.90
38241;DHT22;24037;49.536;8.500;2023-03-13T15:33:18;20.70;99.90
38241;DHT22;24037;49.536;8.500;2023-03-13T15:35:45;20.60;99.90
38241;DHT22;24037;49.536;8.500;2023-03-13T15:38:18;20.50;99.90
38241;DHT22;24037;49.536;8.500;2023-03-13T15:40:45;20.40;99.90
38241;DHT22;24037;49.536;8.500;2023-03-13T15:43:11;20.40;99.90
38241;DHT22;24037;49.536;8.500;2023-03-13T15:45:40;20.30;99.90
38241;DHT22;24037;49.536;8.500;2023-03-13T15:48:14;20.30;99.90
38241;DHT22;24037;49.536;8.500;2023-03-13T15:50:41;20.20;99.90
38241;DHT22;24037;49.536;8.500;2023-03-13T15:55:47;17.70;99.90
38241;DHT22;24037;49.536;8.500;2023-03-13T15:58:14;16.90;99.90
38241;DHT22;24037;49.536;8.500;2023-03-13T16:00:44;16.60;99.90
38241;DHT22;24037;49.536;8.500;2023-03-13T16:03:28;16.40;99.90
38241;DHT22;24037;49.536;8.500;2023-03-13T16:05:55;16.20;99.90
38241;DHT22;24037;49.536;8.500;2023-03-13T16:08:26;16.10;99.90
38241;DHT22;24037;49.536;8.500;2023-03-13T16:10:53;16.10;99.90
38241;DHT22;24037;49.536;8.500;2023-03-13T16:13:20;16.10;99.90
38241;DHT22;24037;49.536;8.500;2023-03-13T16:15:47;16.10;99.90
38241;DHT22;24037;49.536;8.500;2023-03-13T16:18:21;16.00;99.90
38241;DHT22;24037;49.536;8.500;2023-03-13T16:20:49;15.90;99.90
38241;DHT22;24037;49.536;8.500;2023-03-13T16:23:15;15.80;99.90
38241;DHT22;24037;49.536;8.500;2023-03-13T16:25:44;15.70;99.90
38241;DHT22;24037;49.536;8.500;2023-03-13T16:28:12;15.50;99.90
38241;DHT22;24037;49.536;8.500;2023-03-13T16:30:39;15.30;99.90
38241;DHT22;24037;49.536;8.500;2023-03-13T16:33:06;15.20;99.90
38241;DHT22;24037;49.536;8.500;2023-03-13T16:35:36;15.00;99.90
38241;DHT22;24037;49.536;8.500;2023-03-13T16:38:02;14.90;99.90
38241;DHT22;24037;49.536;8.500;2023-03-13T16:40:30;14.60;99.90
38241;DHT22;24037;49.536;8.500;2023-03-13T16:42:57;14.50;99.90
38241;DHT22;24037;49.536;8.500;2023-03-13T16:45:23;14.50;99.90
38241;DHT22;24037;49.536;8.500;2023-03-13T16:47:50;14.40;99.90
38241;DHT22;24037;49.536;8.500;2023-03-13T16:52:43;14.30;99.90
38241;DHT22;24037;49.536;8.500;2023-03-13T16:55:09;14.20;99.90
38241;DHT22;24037;49.536;8.500;2023-03-13T16:57:35;14.20;99.90
38241;DHT22;24037;49.536;8.500;2023-03-13T17:00:02;14.00;99.90
38241;DHT22;24037;49.536;8.500;2023-03-13T17:02:30;13.90;1.00
38241;DHT22;24037;49.536;8.500;2023-03-13T17:04:56;13.80;1.00
38241;DHT22;24037;49.536;8.500;2023-03-13T17:07:24;13.70;1.00
38241;DHT22;24037;49.536;8.500;2023-03-13T17:09:51;13.50;1.00
38241;DHT22;24037;49.536;8.500;2023-03-13T17:12:18;13.30;1.00
38241;DHT22;24037;49.536;8.500;2023-03-13T17:14:44;13.20;1.00
38241;DHT22;24037;49.536;8.500;2023-03-13T17:17:17;13.20;1.00
38241;DHT22;24037;49.536;8.500;2023-03-13T17:19:44;13.10;1.00
38241;DHT22;24037;49.536;8.500;2023-03-13T17:22:15;13.00;99.90
38241;DHT22;24037;49.536;8.500;2023-03-13T17:24:42;12.90;99.90
38241;DHT22;24037;49.536;8.500;2023-03-13T17:27:12;12.80;99.90
38241;DHT22;24037;49.536;8.500;2023-03-13T17:29:39;12.50;99.90
38241;DHT22;24037;49.536;8.500;2023-03-13T17:32:05;12.40;99.90
38241;DHT22;24037;49.536;8.500;2023-03-13T17:34:31;12.30;99.90
38241;DHT22;24037;49.536;8.500;2023-03-13T17:36:58;12.30;99.90
38241;DHT22;24037;49.536;8.500;2023-03-13T17:39:29;12.40;99.90
38241;DHT22;24037;49.536;8.500;2023-03-13T17:41:56;12.40;99.90
38241;DHT22;24037;49.536;8.500;2023-03-13T17:44:22;12.30;99.90
38241;DHT22;24037;49.536;8.500;2023-03-13T17:46:49;12.20;99.90
38241;DHT22;24037;49.536;8.500;2023-03-13T17:49:17;12.30;99.90
38241;DHT22;24037;49.536;8.500;2023-03-13T17:51:45;12.20;99.90
38241;DHT22;24037;49.536;8.500;2023-03-13T17:54:12;12.10;99.90
38241;DHT22;24037;49.536;8.500;2023-03-13T17:56:39;12.20;99.90